Latest Coastal Weather Observations for Maria Island

IDT60701

Issued at 8:32 am EST Friday 19 August 2022 (issued every 10 minutes, with the page automatically refreshed every 10 minutes)

About coastal observations | Map of coastal stations | Coastal observations for TAS | Marine services | Other Formats
Station Details ID: 092124 Name: MARIA ISLAND (POINT LESUEUR) Lat: -42.66 Lon: 148.02 Height: 28.0 m
Data from the previous 72 hours. | See also: Recent months at Maria Island
Date/Time
EST
Wind Sea
Height
m
Swell Vis
km
Cloud Weather Temp
°C
Press
MSL
hPa
Rain since
9am
mm
Dir  Spd
kts
Gust
kts
Height
m
Period
s
Dir
19/08:30am NNW 7 11 - - - - - - - 9.7 1006.3 0.0
19/08:00am NW 3 5 - - - - - - - 9.4 1006.1 0.0
19/07:30am WNW 7 11 - - - - - - - 8.8 1005.7 0.0
19/07:00am NW 11 14 - - - - - - - 8.6 1005.1 0.0
19/06:30am WNW 12 16 - - - - - - - 8.5 1004.6 0.0
19/06:00am WNW 11 16 - - - - - - - 8.6 1004.3 0.0
19/05:30am NW 13 20 - - - - - - - 9.1 1003.8 0.0
19/05:00am NNW 12 15 - - - - - - - 9.0 1003.8 0.0
19/04:30am N 13 15 - - - - - - - 9.2 1003.3 0.0
19/04:00am N 9 13 - - - - - - - 9.3 1003.4 0.0
19/03:30am NW 7 10 - - - - - - - 9.3 1002.9 0.0
19/03:00am NNW 8 10 - - - - - - - 9.3 1002.8 0.0
19/02:30am WNW 5 9 - - - - - - - 9.2 1002.5 0.0
19/02:00am NW 15 19 - - - - - - - 9.5 1001.9 0.0
19/01:30am NNW 18 21 - - - - - - - 9.9 1001.9 0.0
19/01:00am NW 13 18 - - - - - - - 10.2 1002.1 0.0
19/12:30am NNW 12 18 - - - - - - - 10.4 1001.8 0.0
19/12:00am N 16 19 - - - - - - - 10.5 1001.3 0.0
 
Date/Time
EST
Wind Sea
Height
m
Swell Vis
km
Cloud Weather Temp
°C
Press
MSL
hPa
Rain since
9am
mm
Dir  Spd
kts
Gust
kts
Height
m
Period
s
Dir
18/11:30pm NW 13 20 - - - - - - - 10.8 1001.4 0.0
18/11:00pm NW 11 17 - - - - - - - 11.1 1000.5 0.0
18/10:30pm NW 16 23 - - - - - - - 11.2 1000.3 0.0
18/10:00pm WNW 16 20 - - - - - - - 11.1 1000.3 0.0
18/09:30pm WNW 22 27 - - - - - - - 11.3 1000.1 0.0
18/09:00pm NW 19 24 - - - - - - - 11.5 1000.0 0.0
18/08:30pm WNW 14 19 - - - - - - - 11.3 1000.3 0.0
18/08:00pm WNW 15 19 - - - - - - - 11.4 1000.0 0.0
18/07:30pm WNW 21 26 - - - - - - - 11.8 999.2 0.0
18/07:00pm WNW 20 25 - - - - - - - 12.5 998.4 0.0
18/06:30pm WNW 26 34 - - - - - - - 13.2 997.5 0.0
18/06:00pm NW 31 39 - - - - - - - 13.9 996.3 0.0
18/05:46pm NW 27 35 - - - - - - - 14.0 995.9 0.0
18/05:30pm NW 21 26 - - - - - - - 13.3 996.0 0.0
18/05:00pm NNW 25 29 - - - - - - - 13.4 994.9 0.0
18/04:30pm NNW 26 30 - - - - - - - 13.3 994.0 0.0
18/04:00pm NNW 24 27 - - - - - - - 13.5 993.9 0.0
18/03:30pm NNW 26 30 - - - - - - - 14.1 993.3 0.0
18/03:00pm NNW 28 33 - - - - - - - 14.0 993.0 0.0
18/02:30pm NNW 29 35 - - - - - - - 14.0 992.7 0.0
18/02:00pm NNW 38 49 - - - - - - - 14.0 991.5 0.0
18/01:34pm NNW 33 45 - - - - - - - 15.1 992.0 0.0
18/01:30pm NNW 31 38 - - - - - - - 14.9 992.4 0.0
18/01:13pm NW 35 45 - - - - - - - 15.0 992.9 0.0
18/01:00pm NNW 38 47 - - - - - - - 15.0 992.4 0.0
18/12:36pm NW 41 52 - - - - - - - 15.0 991.9 0.0
18/12:30pm NW 43 52 - - - - - - - 14.9 991.6 0.0
18/12:04pm NNW 40 54 - - - - - - - 15.1 992.2 0.0
18/12:00pm NNW 38 49 - - - - - - - 15.2 992.0 0.0
18/11:58am NNW 37 49 - - - - - - - 15.1 991.9 0.0
18/11:30am NNW 30 40 - - - - - - - 15.2 993.7 0.0
18/11:24am NNW 30 39 - - - - - - - 15.3 994.8 0.0
18/11:22am NNW 30 39 - - - - - - - 15.4 994.3 0.0
18/11:09am N 23 34 - - - - - - - 14.8 995.3 0.0
18/11:00am N 24 30 - - - - - - - 14.8 995.7 0.0
18/10:46am N 24 36 - - - - - - - 14.6 995.9 0.0
18/10:30am N 27 33 - - - - - - - 14.6 996.2 0.0
18/10:00am NNW 31 37 - - - - - - - 14.4 996.2 0.0
18/09:30am NNW 29 38 - - - - - - - 13.7 997.0 0.0
18/09:08am N 25 35 - - - - - - - 13.7 997.6 0.0
18/09:00am N 28 35 - - - - - - - 13.6 997.9 0.0
18/08:30am N 22 26 - - - - - - - 13.3 999.0 0.0
18/08:00am N 21 27 - - - - - - - 13.3 999.6 0.0
18/07:30am NNW 20 25 - - - - - - - 13.2 999.7 0.0
18/07:00am N 15 24 - - - - - - - 13.3 999.7 0.0
18/06:36am N 21 31 - - - - - - - 13.4 999.9 0.0
18/06:30am N 23 28 - - - - - - - 13.1 1000.0 0.0
18/06:00am NNW 26 32 - - - - - - - 13.0 998.8 0.0
18/05:30am NNW 31 37 - - - - - - - 13.1 999.1 0.0
18/05:00am NNW 29 36 - - - - - - - 13.0 999.0 0.0
18/04:30am N 32 38 - - - - - - - 12.8 998.7 0.0
18/04:00am N 29 33 - - - - - - - 12.8 999.9 0.0
18/03:30am NNW 24 31 - - - - - - - 12.8 1000.4 0.0
18/03:27am NNW 21 31 - - - - - - - 12.7 1000.8 0.0
18/03:00am N 17 20 - - - - - - - 12.6 1001.9 0.0
18/02:30am N 19 24 - - - - - - - 12.5 1002.5 0.0
18/02:00am N 24 30 - - - - - - - 12.8 1002.7 0.0
18/01:30am N 20 24 - - - - - - - 12.6 1003.0 0.0
18/01:00am N 24 27 - - - - - - - 12.2 1003.4 0.0
18/12:30am N 23 29 - - - - - - - 12.2 1003.4 0.0
18/12:00am NNW 27 32 - - - - - - - 12.3 1003.5 0.0
 
Date/Time
EST
Wind Sea
Height
m
Swell Vis
km
Cloud Weather Temp
°C
Press
MSL
hPa
Rain since
9am
mm
Dir  Spd
kts
Gust
kts
Height
m
Period
s
Dir
17/11:30pm N 28 33 - - - - - - - 12.0 1003.9 0.0
17/11:00pm N 34 38 - - - - - - - 11.9 1004.0 0.0
17/10:30pm NNW 27 33 - - - - - - - 11.9 1005.2 0.0
17/10:00pm NNW 22 24 - - - - - - - 11.8 1006.4 0.0
17/09:30pm N 26 31 - - - - - - - 11.6 1006.2 0.0
17/09:00pm N 26 31 - - - - - - - 11.6 1005.9 0.0
17/08:30pm N 23 30 - - - - - - - 11.8 1006.4 0.0
17/08:00pm N 23 29 - - - - - - - 11.7 1006.9 0.0
17/07:30pm N 21 23 - - - - - - - 11.7 1007.8 0.0
17/07:00pm N 25 29 - - - - - - - 12.1 1007.8 0.0
17/06:30pm N 19 23 - - - - - - - 12.9 1008.3 0.0
17/06:00pm N 20 26 - - - - - - - 12.8 1008.0 0.0
17/05:30pm N 20 24 - - - - - - - 12.8 1007.9 0.0
17/05:00pm N 23 27 - - - - - - - 13.0 1008.1 0.0
17/04:30pm N 24 27 - - - - - - - 12.8 1007.9 0.0
17/04:00pm N 20 21 - - - - - - - 12.9 1009.0 0.0
17/03:30pm N 20 22 - - - - - - - 13.4 1009.1 0.0
17/03:00pm NNE 16 19 - - - - - - - 13.1 1009.6 0.0
17/02:30pm NNE 15 18 - - - - - - - 12.8 1010.2 0.0
17/02:00pm NNE 18 21 - - - - - - - 13.0 1010.6 0.0
17/01:30pm NNE 15 18 - - - - - - - 12.3 1011.1 0.0
17/01:00pm N 20 23 - - - - - - - 12.5 1011.7 0.0
17/12:30pm N 18 21 - - - - - - - 12.3 1012.8 0.0
17/12:00pm N 18 20 - - - - - - - 12.0 1013.6 0.0
17/11:30am N 17 19 - - - - - - - 11.4 1014.1 0.0
17/11:00am N 18 20 - - - - - - - 11.1 1014.4 0.0
17/10:30am N 16 18 - - - - - - - 10.5 1014.9 0.0
17/10:00am N 17 19 - - - - - - - 10.6 1015.3 0.0
17/09:30am N 15 17 - - - - - - - 10.4 1015.1 0.0
17/09:00am NNW 7 10 - - - - - - - 9.4 1015.9 0.0
17/08:30am NNW 7 8 - - - - - - - 9.3 1015.9 0.0
17/08:00am N 6 7 - - - - - - - 9.0 1016.0 0.0
17/07:30am NW 4 5 - - - - - - - 8.6 1016.0 0.0
17/07:00am NE 3 4 - - - - - - - 8.9 1015.9 0.0
17/06:30am W 1 2 - - - - - - - 8.8 1015.8 0.0
17/06:00am CALM 0 1 - - - - - - - 9.5 1015.7 0.0
17/05:30am S 1 2 - - - - - - - 9.8 1015.5 0.0
17/05:00am S 4 6 - - - - - - - 9.8 1015.2 0.0
17/04:30am SSE 4 7 - - - - - - - 9.9 1014.9 0.0
17/04:00am S 7 8 - - - - - - - 9.9 1014.9 0.0
17/03:30am S 6 7 - - - - - - - 9.9 1014.4 0.0
17/03:00am SSW 8 9 - - - - - - - 10.0 1014.7 0.0
17/02:30am SSW 8 10 - - - - - - - 10.0 1014.6 0.0
17/02:00am S 10 12 - - - - - - - 9.9 1014.3 0.0
17/01:30am SSW 11 13 - - - - - - - 10.0 1014.7 0.0
17/01:00am SW 10 12 - - - - - - - 10.1 1014.5 0.0
17/12:30am SSW 9 11 - - - - - - - 10.2 1014.3 0.0
17/12:00am SW 11 15 - - - - - - - 10.3 1014.4 0.0
 
Date/Time
EST
Wind Sea
Height
m
Swell Vis
km
Cloud Weather Temp
°C
Press
MSL
hPa
Rain since
9am
mm
Dir  Spd
kts
Gust
kts
Height
m
Period
s
Dir
16/11:30pm SW 12 15 - - - - - - - 10.3 1014.4 0.0
16/11:00pm WSW 8 11 - - - - - - - 10.5 1014.5 0.0
16/10:30pm SSW 14 16 - - - - - - - 10.5 1014.1 0.0
16/10:00pm SSW 15 18 - - - - - - - 10.7 1014.1 0.0
16/09:30pm SSW 17 20 - - - - - - - 10.7 1014.0 0.0
16/09:00pm SSW 19 21 - - - - - - - 10.7 1013.5 0.0
16/08:30pm SSW 18 22 - - - - - - - 10.8 1013.1 0.0
16/08:00pm SSW 18 21 - - - - - - - 11.1 1013.2 0.0
16/07:30pm SW 16 19 - - - - - - - 11.1 1012.5 0.0
16/07:00pm SSW 13 19 - - - - - - - 11.2 1011.7 0.0
16/06:30pm SSW 13 17 - - - - - - - 11.2 1010.7 0.0
16/06:00pm SSW 17 20 - - - - - - - 11.4 1010.3 0.0
16/05:30pm SW 19 23 - - - - - - - 11.6 1009.6 0.0
16/05:00pm SSW 21 24 - - - - - - - 11.6 1009.0 0.0
16/04:30pm SSW 22 26 - - - - - - - 11.8 1008.6 0.0
16/04:00pm SSW 20 24 - - - - - - - 12.1 1008.2 0.0
16/03:30pm SSW 24 28 - - - - - - - 12.1 1007.8 0.0
16/03:00pm SSW 20 23 - - - - - - - 11.9 1007.5 0.0
16/02:30pm SSW 22 27 - - - - - - - 12.4 1006.8 0.0
16/02:00pm SSW 26 30 - - - - - - - 12.3 1006.2 0.0
16/01:30pm SW 24 32 - - - - - - - 12.9 1005.7 0.0
16/01:00pm SW 20 28 - - - - - - - 12.9 1005.6 0.0
16/12:52pm SW 18 28 - - - - - - - 12.6 1005.6 0.0
16/12:30pm SW 16 21 - - - - - - - 12.5 1005.6 0.0
16/12:00pm SW 16 20 - - - - - - - 12.2 1005.3 0.0
16/11:50am SSW 15 24 - - - - - - - 12.6 1005.3 0.0
16/11:30am SW 9 12 - - - - - - - 12.8 1005.4 0.0
16/11:00am SSW 14 19 - - - - - - - 12.7 1005.4 0.0
16/10:30am SW 18 23 - - - - - - - 12.6 1005.0 0.0
16/10:00am SW 19 23 - - - - - - - 12.0 1004.7 0.0
16/09:30am SW 19 24 - - - - - - - 11.9 1004.3 0.0
16/09:00am SW 19 22 - - - - - - - 11.7 1003.8 1.4

Other formats

Comma delimited format used in spreadsheet applications
http://www.bom.gov.au/fwo/IDT60701/IDT60701.95988.axf

JavaScript Object Notation format (JSON) in row-major order
http://www.bom.gov.au/fwo/IDT60701/IDT60701.95988.json

Data quality

Most of these data are generated automatically and are frequently updated. Quality checks on data are not normally performed. It is possible for incorrect values to appear. Refer to information at About Latest Weather Observations and please check the disclaimer before using these data.